Time;durP1;ratioP1;P1;durP2;ratioP2;P2;SDS_P1;SDS_P2;PMS_P1;PMS_P2;Temp;Humidity;BMP_temperature;BMP_pressure;BME280_temperature;BME280_humidity;BME280_pressure;Samples;Min_cycle;Max_cycle;Signal;HPM_P1;HPM_P2
2023/05/06 00:00:21;;;;;;;;;2.00;2.00;;;;;-143.57;100.00;65101.44;5079048;27;45395;-40
2023/05/06 00:02:47;;;;;;;;;3.00;3.00;;;;;-143.57;100.00;65101.44;5097461;27;45418;-41
2023/05/06 00:05:13;;;;;;;;;4.00;3.00;;;;;-143.57;100.00;65101.44;5097622;27;45333;-41
2023/05/06 00:07:38;;;;;;;;;4.67;2.67;;;;;-143.57;100.00;65101.44;5078712;27;45574;-41
2023/05/06 00:10:05;;;;;;;;;4.00;4.00;;;;;-143.57;100.00;65101.44;5097573;27;45382;-41
2023/05/06 00:12:30;;;;;;;;;4.00;2.67;;;;;-143.57;100.00;65101.44;5097426;27;45303;-40
2023/05/06 00:14:55;;;;;;;;;7.67;3.00;;;;;-143.57;100.00;65101.44;5097548;27;45451;-43
2023/05/06 00:17:21;;;;;;;;;4.67;3.00;;;;;-143.57;100.00;65101.44;5097050;27;46085;-41
2023/05/06 00:19:46;;;;;;;;;6.00;3.67;;;;;-143.57;100.00;65101.44;5078609;27;45429;-46
2023/05/06 00:22:12;;;;;;;;;3.67;3.67;;;;;-143.57;100.00;65101.44;5097387;27;45272;-43
2023/05/06 00:24:37;;;;;;;;;4.00;2.00;;;;;-143.57;100.00;65101.44;5097247;27;45385;-43
2023/05/06 00:27:03;;;;;;;;;3.00;3.00;;;;;-143.57;100.00;65101.44;5096975;27;46139;-44
2023/05/06 00:29:28;;;;;;;;;4.00;2.67;;;;;-143.57;100.00;65101.44;5097149;27;45246;-42
2023/05/06 00:31:53;;;;;;;;;2.00;2.00;;;;;-143.57;100.00;65101.44;5097255;27;45310;-42
2023/05/06 00:34:19;;;;;;;;;5.33;5.00;;;;;-143.57;100.00;65101.44;5097660;27;45341;-43
2023/05/06 00:36:44;;;;;;;;;5.00;3.00;;;;;-143.57;100.00;65101.44;5097045;27;46303;-43
2023/05/06 00:39:09;;;;;;;;;5.33;4.67;;;;;-143.57;100.00;65101.44;5096887;27;45442;-41
2023/05/06 00:41:35;;;;;;;;;8.00;4.00;;;;;-143.57;100.00;65101.44;5097179;27;45424;-40
2023/05/06 00:44:00;;;;;;;;;9.67;5.33;;;;;-143.57;100.00;65101.44;5097304;27;45286;-43
2023/05/06 00:46:26;;;;;;;;;5.33;5.00;;;;;-143.57;100.00;65101.44;5096968;27;46138;-41
2023/05/06 00:48:52;;;;;;;;;5.33;5.33;;;;;-143.57;100.00;65101.44;5097142;27;45300;-45
2023/05/06 00:51:17;;;;;;;;;6.67;6.33;;;;;-143.57;100.00;65101.44;5097196;27;45418;-42
2023/05/06 00:53:46;;;;;;;;;8.00;6.33;;;;;-143.57;100.00;65101.44;5097170;27;45349;-43
2023/05/06 00:56:12;;;;;;;;;8.33;6.00;;;;;-143.57;100.00;65101.44;5096783;27;45374;-42
2023/05/06 00:58:37;;;;;;;;;5.00;5.00;;;;;-143.57;100.00;65101.44;5097121;27;45322;-43
2023/05/06 01:01:03;;;;;;;;;4.67;3.33;;;;;-143.57;100.00;65101.44;5096905;27;45413;-44
2023/05/06 01:03:30;;;;;;;;;5.00;5.00;;;;;-143.57;100.00;65101.44;5096942;27;45444;-42
2023/05/06 01:06:18;;;;;;;;;7.00;5.67;;;;;-143.57;100.00;65101.44;5096809;27;45405;-44
2023/05/06 01:09:03;;;;;;;;;5.00;3.67;;;;;-143.57;100.00;65101.44;5096631;27;45333;-43
2023/05/06 01:11:42;;;;;;;;;8.67;5.00;;;;;-143.57;100.00;65101.44;5097096;27;45229;-42
2023/05/06 01:14:34;;;;;;;;;8.00;5.67;;;;;-143.57;100.00;65101.44;5095682;27;45528;-44
2023/05/06 01:17:03;;;;;;;;;8.00;5.67;;;;;-143.57;100.00;65101.44;5013534;28;45520;-40
2023/05/06 01:19:37;;;;;;;;;9.33;5.00;;;;;-143.57;100.00;65101.44;5013692;28;45284;-44
2023/05/06 01:22:05;;;;;;;;;8.67;5.00;;;;;-143.57;100.00;65101.44;5013858;28;45408;-42
2023/05/06 01:24:35;;;;;;;;;6.00;5.00;;;;;-143.57;100.00;65101.44;5013821;28;45517;-44
2023/05/06 01:27:00;;;;;;;;;8.33;5.67;;;;;-143.57;100.00;65101.44;5013467;28;45442;-44
2023/05/06 01:29:26;;;;;;;;;6.33;5.00;;;;;-143.57;100.00;65101.44;5013624;28;45313;-41
2023/05/06 01:31:57;;;;;;;;;5.00;5.00;;;;;-143.57;100.00;65101.44;5014220;28;45366;-43
2023/05/06 01:34:33;;;;;;;;;10.00;10.00;;;;;-143.57;100.00;65101.44;5017332;28;45445;-46
2023/05/06 01:37:24;;;;;;;;;8.00;8.00;;;;;-143.57;100.00;65101.44;5016528;28;46330;-43
2023/05/06 01:39:54;;;;;;;;;4.00;4.00;;;;;-143.57;100.00;65101.44;5016771;28;45404;-45
2023/05/06 01:42:21;;;;;;;;;8.33;6.33;;;;;-143.57;100.00;65101.44;5016906;28;45262;-44
2023/05/06 01:44:48;;;;;;;;;8.67;6.00;;;;;-143.57;100.00;65101.44;5016834;28;45297;-43
2023/05/06 01:47:14;;;;;;;;;7.67;5.67;;;;;-143.57;100.00;65101.44;5016420;28;46802;-46
2023/05/06 01:49:40;;;;;;;;;4.00;4.00;;;;;-143.57;100.00;65101.44;5016677;28;45509;-45
2023/05/06 01:52:06;;;;;;;;;6.33;3.67;;;;;-143.57;100.00;65101.44;4999973;28;45400;-45
2023/05/06 01:54:32;;;;;;;;;6.00;5.00;;;;;-143.57;100.00;65101.44;5083048;27;45415;-45
2023/05/06 01:56:57;;;;;;;;;6.00;5.67;;;;;-143.57;100.00;65101.44;5099363;27;46755;-42
2023/05/06 01:59:22;;;;;;;;;7.33;7.33;;;;;-143.57;100.00;65101.44;5099476;27;45411;-43
2023/05/06 02:01:48;;;;;;;;;9.00;7.33;;;;;-143.57;100.00;65101.44;5099799;27;45352;-45
2023/05/06 02:04:13;;;;;;;;;7.67;7.67;;;;;-143.57;100.00;65101.44;5099689;27;45393;-43
2023/05/06 02:06:39;;;;;;;;;4.67;4.67;;;;;-143.57;100.00;65101.44;5099528;27;47293;-44
2023/05/06 02:09:04;;;;;;;;;4.67;4.67;;;;;-143.57;100.00;65101.44;5099194;27;45541;-41
2023/05/06 02:11:29;;;;;;;;;6.33;5.00;;;;;-143.57;100.00;65101.44;5099611;27;45349;-46
2023/05/06 02:13:54;;;;;;;;;9.00;6.00;;;;;-143.57;100.00;65101.44;5099508;27;45539;-44
2023/05/06 02:16:20;;;;;;;;;8.00;5.00;;;;;-143.57;100.00;65101.44;5098242;27;45499;-42
2023/05/06 02:18:46;;;;;;;;;6.33;6.33;;;;;-143.57;100.00;65101.44;5099171;27;45385;-44
2023/05/06 02:21:11;;;;;;;;;7.50;6.00;;;;;-143.57;100.00;65101.44;5099558;27;45413;-45
2023/05/06 02:23:37;;;;;;;;;4.67;4.67;;;;;-143.57;100.00;65101.44;5099415;27;45397;-42
2023/05/06 02:26:03;;;;;;;;;9.00;7.00;;;;;-143.57;100.00;65101.44;5099380;27;45251;-43
2023/05/06 02:28:28;;;;;;;;;3.67;3.67;;;;;-143.57;100.00;65101.44;5099352;27;45237;-45
2023/05/06 02:30:57;;;;;;;;;6.00;6.00;;;;;-143.57;100.00;65101.44;5099276;27;45322;-43
2023/05/06 02:33:23;;;;;;;;;5.33;5.33;;;;;-143.57;100.00;65101.44;5099251;27;45425;-45
2023/05/06 02:35:49;;;;;;;;;5.00;5.00;;;;;-143.57;100.00;65101.44;5098702;27;46106;-44
2023/05/06 02:38:14;;;;;;;;;7.33;4.67;;;;;-143.57;100.00;65101.44;5098912;27;45464;-44
2023/05/06 02:40:39;;;;;;;;;7.00;4.67;;;;;-143.57;100.00;65101.44;5098888;27;45318;-44
2023/05/06 02:43:05;;;;;;;;;5.33;3.00;;;;;-143.57;100.00;65101.44;5098531;27;45341;-41
2023/05/06 02:45:30;;;;;;;;;8.00;8.00;;;;;-143.57;100.00;65101.44;5097986;27;46036;-41
2023/05/06 02:47:55;;;;;;;;;9.33;7.00;;;;;-143.57;100.00;65101.44;5098774;27;45218;-41
2023/05/06 02:50:21;;;;;;;;;10.33;5.00;;;;;-143.57;100.00;65101.44;5099125;27;45318;-44
2023/05/06 02:52:46;;;;;;;;;12.00;9.33;;;;;-143.57;100.00;65101.44;5098961;27;45366;-45
2023/05/06 02:55:12;;;;;;;;;9.33;7.33;;;;;-143.57;100.00;65101.44;5098448;27;46109;-40
2023/05/06 02:57:37;;;;;;;;;8.00;8.00;;;;;-143.57;100.00;65101.44;5098519;27;45425;-43
2023/05/06 03:00:05;;;;;;;;;8.33;7.33;;;;;-143.57;100.00;65101.44;5098780;27;45321;-43
2023/05/06 03:02:30;;;;;;;;;6.00;4.00;;;;;-143.57;100.00;65101.44;5080375;27;45292;-43
2023/05/06 03:04:55;;;;;;;;;7.00;5.00;;;;;-143.57;100.00;65101.44;5098359;27;46029;-43
2023/05/06 03:07:20;;;;;;;;;4.67;4.67;;;;;-143.57;100.00;65101.44;5098611;27;45310;-45
2023/05/06 03:09:46;;;;;;;;;6.33;4.33;;;;;-143.57;100.00;65101.44;5098323;27;45440;-44
2023/05/06 03:12:11;;;;;;;;;9.00;5.67;;;;;-143.57;100.00;65101.44;5098458;27;45314;-41
2023/05/06 03:14:36;;;;;;;;;7.33;4.00;;;;;-143.57;100.00;65101.44;5098387;27;46103;-44
2023/05/06 03:17:02;;;;;;;;;7.00;5.00;;;;;-143.57;100.00;65101.44;5098110;27;46405;-46
2023/05/06 03:19:27;;;;;;;;;5.67;4.33;;;;;-143.57;100.00;65101.44;5098390;27;45305;-41
2023/05/06 03:21:53;;;;;;;;;4.00;4.00;;;;;-143.57;100.00;65101.44;5098618;27;45413;-44
2023/05/06 03:24:18;;;;;;;;;8.67;5.00;;;;;-143.57;100.00;65101.44;5098011;27;46046;-44
2023/05/06 03:26:44;;;;;;;;;11.33;8.67;;;;;-143.57;100.00;65101.44;5098050;27;45664;-46
2023/05/06 03:29:10;;;;;;;;;9.33;6.00;;;;;-143.57;100.00;65101.44;5098123;27;45312;-46
2023/05/06 03:31:35;;;;;;;;;8.00;7.00;;;;;-143.57;100.00;65101.44;5098320;27;45361;-47
2023/05/06 03:34:01;;;;;;;;;9.67;6.00;;;;;-143.57;100.00;65101.44;5097667;27;45298;-44
2023/05/06 03:36:26;;;;;;;;;7.33;7.33;;;;;-143.57;100.00;65101.44;5097937;27;45250;-43
2023/05/06 03:38:53;;;;;;;;;7.67;5.67;;;;;-143.57;100.00;65101.44;5098260;27;45381;-44
2023/05/06 03:41:18;;;;;;;;;9.67;7.00;;;;;-143.57;100.00;65101.44;5097989;27;45250;-46
2023/05/06 03:43:44;;;;;;;;;9.67;8.67;;;;;-143.57;100.00;65101.44;5097905;27;45810;-46
2023/05/06 03:46:10;;;;;;;;;9.00;9.00;;;;;-143.57;100.00;65101.44;5097554;27;45327;-43
2023/05/06 03:48:35;;;;;;;;;5.00;3.00;;;;;-143.57;100.00;65101.44;5098052;27;45375;-41
2023/05/06 03:51:01;;;;;;;;;8.00;5.00;;;;;-143.57;100.00;65101.44;5098070;27;45374;-46
2023/05/06 03:53:27;;;;;;;;;5.00;5.00;;;;;-143.57;100.00;65101.44;5097648;27;46090;-45
2023/05/06 03:55:52;;;;;;;;;5.67;5.00;;;;;-143.57;100.00;65101.44;5097321;27;45417;-43
2023/05/06 03:58:17;;;;;;;;;6.00;6.00;;;;;-143.57;100.00;65101.44;5097661;27;45921;-41
2023/05/06 04:00:43;;;;;;;;;6.33;6.33;;;;;-143.57;100.00;65101.44;5097820;27;45313;-42
2023/05/06 04:03:08;;;;;;;;;6.00;4.00;;;;;-143.57;100.00;65101.44;5097715;27;45338;-43
2023/05/06 04:05:34;;;;;;;;;8.00;5.33;;;;;-143.57;100.00;65101.44;5097651;27;45281;-43
2023/05/06 04:07:59;;;;;;;;;6.33;6.33;;;;;-143.57;100.00;65101.44;5097880;27;45357;-45
2023/05/06 04:10:24;;;;;;;;;5.00;4.33;;;;;-143.57;100.00;65101.44;5097661;27;45463;-40
2023/05/06 04:12:50;;;;;;;;;5.67;5.67;;;;;-143.57;100.00;65101.44;5097598;27;45994;-41
2023/05/06 04:15:15;;;;;;;;;11.67;6.00;;;;;-143.57;100.00;65101.44;5097571;27;45403;-45
2023/05/06 04:17:41;;;;;;;;;9.67;8.00;;;;;-143.57;100.00;65101.44;5097470;27;45309;-45
2023/05/06 04:20:10;;;;;;;;;5.33;5.33;;;;;-143.57;100.00;65101.44;5097896;27;45496;-44
2023/05/06 04:22:36;;;;;;;;;7.33;6.00;;;;;-143.57;100.00;65101.44;5097180;27;46175;-46
2023/05/06 04:25:01;;;;;;;;;5.00;5.00;;;;;-143.57;100.00;65101.44;5097305;27;45373;-42
2023/05/06 04:27:28;;;;;;;;;6.67;6.00;;;;;-143.57;100.00;65101.44;5097608;27;45401;-43
2023/05/06 04:29:54;;;;;;;;;6.67;6.67;;;;;-143.57;100.00;65101.44;5079100;27;45492;-46
2023/05/06 04:32:24;;;;;;;;;10.00;8.00;;;;;-143.57;100.00;65101.44;5096711;27;46318;-43
2023/05/06 04:34:52;;;;;;;;;8.00;8.00;;;;;-143.57;100.00;65101.44;5097139;27;45357;-45
2023/05/06 04:37:18;;;;;;;;;7.00;7.00;;;;;-143.57;100.00;65101.44;5097169;27;45345;-42
2023/05/06 04:39:46;;;;;;;;;7.67;7.67;;;;;-143.57;100.00;65101.44;5097392;27;45424;-43
2023/05/06 04:42:13;;;;;;;;;12.33;8.67;;;;;-143.57;100.00;65101.44;5096148;27;46242;-44
2023/05/06 04:44:38;;;;;;;;;10.67;5.67;;;;;-143.57;100.00;65101.44;5096327;27;45343;-45
2023/05/06 04:47:04;;;;;;;;;9.67;6.00;;;;;-143.57;100.00;65101.44;5096980;27;45235;-44
2023/05/06 04:49:30;;;;;;;;;10.67;6.00;;;;;-143.57;100.00;65101.44;5097619;27;45328;-45
2023/05/06 04:51:55;;;;;;;;;5.67;5.67;;;;;-143.57;100.00;65101.44;5097113;27;46807;-45
2023/05/06 04:54:21;;;;;;;;;11.67;8.67;;;;;-143.57;100.00;65101.44;5097023;27;45327;-44
2023/05/06 04:56:46;;;;;;;;;8.33;8.33;;;;;-143.57;100.00;65101.44;5096861;27;45602;-43
2023/05/06 04:59:12;;;;;;;;;9.00;9.00;;;;;-143.57;100.00;65101.44;5097283;27;45393;-46
2023/05/06 05:01:37;;;;;;;;;9.00;9.00;;;;;-143.57;100.00;65101.44;5096705;27;45928;-41
2023/05/06 05:04:02;;;;;;;;;11.00;9.00;;;;;-143.57;100.00;65101.44;5096920;27;45307;-47
2023/05/06 05:06:28;;;;;;;;;10.00;9.67;;;;;-143.57;100.00;65101.44;5096893;27;45542;-43
2023/05/06 05:08:53;;;;;;;;;12.00;10.67;;;;;-143.57;100.00;65101.44;5100985;27;45385;-45
2023/05/06 05:11:18;;;;;;;;;13.33;10.00;;;;;-143.57;100.00;65101.44;5100008;27;45960;-43
2023/05/06 05:13:44;;;;;;;;;11.67;11.67;;;;;-143.57;100.00;65101.44;5081906;27;45307;-40
2023/05/06 05:16:09;;;;;;;;;12.67;10.67;;;;;-143.57;100.00;65101.44;5100553;27;45324;-40
2023/05/06 05:18:34;;;;;;;;;11.67;10.00;;;;;-143.57;100.00;65101.44;5100716;27;45393;-41
2023/05/06 05:21:00;;;;;;;;;12.67;9.67;;;;;-143.57;100.00;65101.44;5100418;27;46910;-41
2023/05/06 05:23:25;;;;;;;;;12.00;10.00;;;;;-143.57;100.00;65101.44;5099475;27;45313;-40
2023/05/06 05:25:50;;;;;;;;;6.67;6.67;;;;;-143.57;100.00;65101.44;5100071;27;45358;-40
2023/05/06 05:28:16;;;;;;;;;9.33;8.00;;;;;-143.57;100.00;65101.44;5100472;27;45482;-44
2023/05/06 05:30:41;;;;;;;;;9.33;9.00;;;;;-143.57;100.00;65101.44;5099796;27;46077;-45
2023/05/06 05:33:06;;;;;;;;;9.00;9.00;;;;;-143.57;100.00;65101.44;5099924;27;50063;-46
2023/05/06 05:35:31;;;;;;;;;10.00;8.00;;;;;-143.57;100.00;65101.44;5100104;27;45223;-44
2023/05/06 05:37:57;;;;;;;;;7.00;7.00;;;;;-143.57;100.00;65101.44;5100049;27;45399;-46
2023/05/06 05:40:22;;;;;;;;;9.67;7.67;;;;;-143.57;100.00;65101.44;5099664;27;47105;-41
2023/05/06 05:42:47;;;;;;;;;10.00;9.00;;;;;-143.57;100.00;65101.44;5099788;27;45352;-45
2023/05/06 05:45:13;;;;;;;;;10.00;8.00;;;;;-143.57;100.00;65101.44;5099635;27;45236;-44
2023/05/06 05:47:38;;;;;;;;;11.00;7.33;;;;;-143.57;100.00;65101.44;5100025;27;45508;-43
2023/05/06 05:50:05;;;;;;;;;6.67;6.33;;;;;-143.57;100.00;65101.44;5099730;27;46092;-41
2023/05/06 05:52:30;;;;;;;;;8.67;6.67;;;;;-143.57;100.00;65101.44;5099959;27;45388;-43
2023/05/06 05:54:55;;;;;;;;;7.67;7.33;;;;;-143.57;100.00;65101.44;5099754;27;45342;-44
2023/05/06 05:57:21;;;;;;;;;9.00;9.00;;;;;-143.57;100.00;65101.44;5099860;27;45350;-44
2023/05/06 05:59:46;;;;;;;;;9.67;6.67;;;;;-143.57;100.00;65101.44;5080910;27;46358;-43
2023/05/06 06:02:11;;;;;;;;;10.00;10.00;;;;;-143.57;100.00;65101.44;5099694;27;45412;-45
2023/05/06 06:04:36;;;;;;;;;9.00;9.00;;;;;-143.57;100.00;65101.44;5099833;27;45440;-42
2023/05/06 06:07:02;;;;;;;;;10.00;7.67;;;;;-143.57;100.00;65101.44;5099273;27;45451;-43
2023/05/06 06:09:27;;;;;;;;;10.00;8.67;;;;;-143.57;100.00;65101.44;5099578;27;45375;-42
2023/05/06 06:11:53;;;;;;;;;6.00;5.67;;;;;-143.57;100.00;65101.44;5099447;27;45527;-43
2023/05/06 06:14:18;;;;;;;;;10.00;6.67;;;;;-143.57;100.00;65101.44;5099458;27;45385;-42
2023/05/06 06:16:44;;;;;;;;;8.33;7.33;;;;;-143.57;100.00;65101.44;5099635;27;45283;-44
2023/05/06 06:19:09;;;;;;;;;16.00;12.00;;;;;-143.57;100.00;65101.44;5099299;27;46129;-44
2023/05/06 06:21:34;;;;;;;;;5.33;5.00;;;;;-143.57;100.00;65101.44;5099307;27;45397;-43
2023/05/06 06:24:00;;;;;;;;;16.33;10.33;;;;;-143.57;100.00;65101.44;5099461;27;45380;-42
2023/05/06 06:26:25;;;;;;;;;10.67;8.00;;;;;-143.57;100.00;65101.44;5099345;27;45327;-40
2023/05/06 06:28:51;;;;;;;;;10.00;10.00;;;;;-143.57;100.00;65101.44;5099377;27;45333;-41
2023/05/06 06:31:16;;;;;;;;;10.00;8.67;;;;;-143.57;100.00;65101.44;5099369;27;45327;-40
2023/05/06 06:33:42;;;;;;;;;12.67;11.67;;;;;-143.57;100.00;65101.44;5099116;27;45272;-41
2023/05/06 06:36:07;;;;;;;;;13.00;10.00;;;;;-143.57;100.00;65101.44;5099295;27;45474;-41
2023/05/06 06:38:32;;;;;;;;;11.67;11.00;;;;;-143.57;100.00;65101.44;5098688;27;48461;-46
2023/05/06 06:40:58;;;;;;;;;13.67;8.67;;;;;-143.57;100.00;65101.44;5098895;27;45302;-43
2023/05/06 06:43:23;;;;;;;;;13.67;11.00;;;;;-143.57;100.00;65101.44;5099094;27;45517;-44
2023/05/06 06:45:49;;;;;;;;;12.00;9.33;;;;;-143.57;100.00;65101.44;5098834;27;45421;-47
2023/05/06 06:48:15;;;;;;;;;16.00;9.67;;;;;-143.57;100.00;65101.44;5098580;27;45226;-44
2023/05/06 06:50:41;;;;;;;;;12.00;8.00;;;;;-143.57;100.00;65101.44;5098811;27;45639;-44
2023/05/06 06:53:06;;;;;;;;;9.00;9.00;;;;;-143.57;100.00;65101.44;5098700;27;45350;-41
2023/05/06 06:55:32;;;;;;;;;11.33;8.00;;;;;-143.57;100.00;65101.44;5080246;27;45451;-41
2023/05/06 06:57:57;;;;;;;;;9.00;9.00;;;;;-143.57;100.00;65101.44;5098206;27;47081;-41
2023/05/06 07:00:23;;;;;;;;;11.33;10.00;;;;;-143.57;100.00;65101.44;5098479;27;45319;-42
2023/05/06 07:02:48;;;;;;;;;6.67;6.67;;;;;-143.57;100.00;65101.44;5098452;27;45413;-41
2023/05/06 07:05:14;;;;;;;;;12.00;8.67;;;;;-143.57;100.00;65101.44;5098597;27;45873;-41
2023/05/06 07:07:39;;;;;;;;;1.00;1.00;;;;;-143.57;100.00;65101.44;5098358;27;46115;-42
2023/05/06 07:10:06;;;;;;;;;17.33;11.00;;;;;-143.57;100.00;65101.44;5098369;27;45546;-42
2023/05/06 07:12:31;;;;;;;;;14.33;13.00;;;;;-143.57;100.00;65101.44;5098119;27;45404;-44
2023/05/06 07:14:56;;;;;;;;;9.67;7.67;;;;;-143.57;100.00;65101.44;5098197;27;45296;-47
2023/05/06 07:17:22;;;;;;;;;12.33;7.00;;;;;-143.57;100.00;65101.44;5098322;27;46171;-43
2023/05/06 07:19:47;;;;;;;;;12.67;9.67;;;;;-143.57;100.00;65101.44;5098203;27;45214;-46
2023/05/06 07:22:13;;;;;;;;;13.00;9.00;;;;;-143.57;100.00;65101.44;5098342;27;45230;-43
2023/05/06 07:24:38;;;;;;;;;8.00;8.00;;;;;-143.57;100.00;65101.44;5098601;27;45338;-43
2023/05/06 07:27:03;;;;;;;;;14.00;9.67;;;;;-143.57;100.00;65101.44;5097776;27;45206;-41
2023/05/06 07:29:29;;;;;;;;;10.00;10.00;;;;;-143.57;100.00;65101.44;5097507;27;45433;-46
2023/05/06 07:31:55;;;;;;;;;7.75;7.50;;;;;-143.57;100.00;65101.44;5098101;27;45451;-41
2023/05/06 07:34:20;;;;;;;;;12.25;9.00;;;;;-143.57;100.00;65101.44;5079660;27;45524;-42
2023/05/06 07:36:45;;;;;;;;;12.00;9.00;;;;;-143.57;100.00;65101.44;5097763;27;45744;-43
2023/05/06 07:39:13;;;;;;;;;13.00;8.75;;;;;-143.57;100.00;65101.44;5097922;27;45492;-42
2023/05/06 07:41:39;;;;;;;;;14.00;10.33;;;;;-143.57;100.00;65101.44;5079541;27;45312;-41
2023/05/06 07:44:04;;;;;;;;;10.00;8.00;;;;;-143.57;100.00;65101.44;5098283;27;45485;-41
2023/05/06 07:46:30;;;;;;;;;9.75;9.00;;;;;-143.57;100.00;65101.44;5097591;27;45915;-41
2023/05/06 07:48:56;;;;;;;;;9.00;7.00;;;;;-143.57;100.00;65101.44;5097617;27;45452;-42
2023/05/06 07:51:22;;;;;;;;;8.75;7.50;;;;;-143.57;100.00;65101.44;5097903;27;45337;-42
2023/05/06 07:53:47;;;;;;;;;10.25;9.25;;;;;-143.57;100.00;65101.44;5098048;27;45396;-41
2023/05/06 07:56:13;;;;;;;;;10.00;7.25;;;;;-143.57;100.00;65101.44;5097349;27;47072;-46
2023/05/06 07:58:38;;;;;;;;;8.50;7.00;;;;;-143.57;100.00;65101.44;5097758;27;45272;-44
2023/05/06 08:01:05;;;;;;;;;12.75;9.00;;;;;-143.57;100.00;65101.44;5097914;27;45414;-44
2023/05/06 08:03:30;;;;;;;;;8.50;7.00;;;;;-143.57;100.00;65101.44;5097922;27;45468;-45
2023/05/06 08:05:56;;;;;;;;;8.75;8.00;;;;;-143.57;100.00;65101.44;5097449;27;46629;-42
2023/05/06 08:08:22;;;;;;;;;9.50;9.00;;;;;-143.57;100.00;65101.44;5097613;27;45347;-44
2023/05/06 08:10:47;;;;;;;;;9.75;9.25;;;;;-143.57;100.00;65101.44;5097820;27;45365;-43
2023/05/06 08:13:13;;;;;;;;;10.75;8.50;;;;;-143.57;100.00;65101.44;5097331;27;45508;-39
2023/05/06 08:15:38;;;;;;;;;8.50;8.50;;;;;-143.57;100.00;65101.44;5097361;27;45393;-39
2023/05/06 08:18:04;;;;;;;;;10.25;9.00;;;;;-143.57;100.00;65101.44;5097225;27;45379;-43
2023/05/06 08:20:30;;;;;;;;;9.00;7.00;;;;;-143.57;100.00;65101.44;5097123;27;45370;-43
2023/05/06 08:22:55;;;;;;;;;7.25;6.25;;;;;-143.57;100.00;65101.44;5097520;27;45403;-40
2023/05/06 08:25:20;;;;;;;;;9.50;9.00;;;;;-143.57;100.00;65101.44;5097245;27;46329;-41
2023/05/06 08:27:46;;;;;;;;;8.50;7.25;;;;;-143.57;100.00;65101.44;5097225;27;45348;-40
2023/05/06 08:30:12;;;;;;;;;10.00;7.25;;;;;-143.57;100.00;65101.44;5097496;27;45419;-40
2023/05/06 08:32:38;;;;;;;;;5.50;5.50;;;;;-143.57;100.00;65101.44;5097091;27;45323;-43
2023/05/06 08:35:07;;;;;;;;;9.60;6.60;;;;;-143.57;100.00;65101.44;5097018;27;46371;-42
2023/05/06 08:37:32;;;;;;;;;9.00;7.80;;;;;-143.57;100.00;65101.44;5097252;27;45426;-44
2023/05/06 08:39:58;;;;;;;;;5.75;5.75;;;;;-143.57;100.00;65101.44;5097309;27;45343;-44
2023/05/06 08:42:24;;;;;;;;;7.50;6.00;;;;;-143.57;100.00;65101.44;5098992;27;45500;-41
2023/05/06 08:44:51;;;;;;;;;8.60;4.60;;;;;-143.57;100.00;65101.44;5100845;27;46293;-47
2023/05/06 08:47:18;;;;;;;;;6.40;5.80;;;;;-143.57;100.00;65101.44;5100896;27;45321;-40
2023/05/06 08:49:43;;;;;;;;;5.80;3.20;;;;;-143.57;100.00;65101.44;5101034;27;45295;-42
2023/05/06 08:52:10;;;;;;;;;4.75;4.75;;;;;-143.57;100.00;65101.44;5101163;27;45411;-46
2023/05/06 08:54:37;;;;;;;;;5.80;4.00;;;;;-143.57;100.00;65101.44;5100867;27;46359;-46
2023/05/06 08:57:06;;;;;;;;;4.00;4.00;;;;;-143.57;100.00;65101.44;5100591;27;45575;-43
2023/05/06 08:59:33;;;;;;;;;6.20;4.40;;;;;-143.57;100.00;65101.44;5101013;27;45258;-41
2023/05/06 09:02:03;;;;;;;;;5.20;5.00;;;;;-143.57;100.00;65101.44;5101235;27;45384;-44
2023/05/06 09:04:28;;;;;;;;;5.40;3.80;;;;;-143.57;100.00;65101.44;5100524;27;46070;-47
2023/05/06 09:06:56;;;;;;;;;7.75;6.00;;;;;-143.57;100.00;65101.44;5100526;27;45328;-41
2023/05/06 09:09:22;;;;;;;;;7.60;7.20;;;;;-143.57;100.00;65101.44;5100815;27;45432;-44
2023/05/06 09:11:56;;;;;;;;;5.00;5.00;;;;;-143.57;100.00;65101.44;5100885;27;45217;-44
2023/05/06 09:14:22;;;;;;;;;9.00;5.75;;;;;-143.57;100.00;65101.44;5081843;27;46970;-48
2023/05/06 09:16:49;;;;;;;;;5.25;5.25;;;;;-143.57;100.00;65101.44;5100529;27;45425;-44
2023/05/06 09:19:16;;;;;;;;;7.80;6.00;;;;;-143.57;100.00;65101.44;5100422;27;45378;-46
2023/05/06 09:21:46;;;;;;;;;5.25;4.00;;;;;-143.57;100.00;65101.44;5100748;27;45452;-46
2023/05/06 09:24:13;;;;;;;;;7.25;6.50;;;;;-143.57;100.00;65101.44;5099913;27;46633;-48
2023/05/06 09:26:41;;;;;;;;;4.40;4.00;;;;;-143.57;100.00;65101.44;5100067;27;45219;-47
2023/05/06 09:29:07;;;;;;;;;7.20;4.60;;;;;-143.57;100.00;65101.44;5100350;27;45402;-47
2023/05/06 09:31:38;;;;;;;;;3.75;3.75;;;;;-143.57;100.00;65101.44;5100477;27;45409;-49
2023/05/06 09:34:04;;;;;;;;;3.40;3.40;;;;;-143.57;100.00;65101.44;5100102;27;46083;-47
2023/05/06 09:36:29;;;;;;;;;5.75;4.50;;;;;-143.57;100.00;65101.44;5100349;27;45311;-45
2023/05/06 09:38:55;;;;;;;;;6.75;4.75;;;;;-143.57;100.00;65101.44;5100614;27;45322;-44
2023/05/06 09:41:26;;;;;;;;;2.60;2.60;;;;;-143.57;100.00;65101.44;5100812;27;45311;-46
2023/05/06 09:43:52;;;;;;;;;4.00;4.00;;;;;-143.57;100.00;65101.44;5099785;27;46462;-41
2023/05/06 09:46:20;;;;;;;;;4.80;4.20;;;;;-143.57;100.00;65101.44;5099983;27;45218;-45
2023/05/06 09:48:46;;;;;;;;;4.00;4.00;;;;;-143.57;100.00;65101.44;5081744;27;45370;-46
2023/05/06 09:51:12;;;;;;;;;6.00;4.60;;;;;-143.57;100.00;65101.44;5100307;27;45310;-45
2023/05/06 09:53:38;;;;;;;;;6.00;4.00;;;;;-143.57;100.00;65101.44;5099331;27;46100;-45
2023/05/06 09:56:07;;;;;;;;;5.50;4.00;;;;;-143.57;100.00;65101.44;5099748;27;45579;-42
2023/05/06 09:58:34;;;;;;;;;6.80;3.60;;;;;-143.57;100.00;65101.44;5099789;27;45177;-46
2023/05/06 10:01:02;;;;;;;;;4.00;4.00;;;;;-143.57;100.00;65101.44;5100254;27;45243;-46
2023/05/06 10:03:29;;;;;;;;;6.40;5.80;;;;;-143.57;100.00;65101.44;5099738;27;46204;-47
2023/05/06 10:05:56;;;;;;;;;7.40;4.80;;;;;-143.57;100.00;65101.44;5099675;27;45436;-45
2023/05/06 10:08:23;;;;;;;;;3.40;3.40;;;;;-143.57;100.00;65101.44;5099812;27;45293;-41
2023/05/06 10:10:48;;;;;;;;;3.40;2.80;;;;;-143.57;100.00;65101.44;5099860;27;45533;-45
2023/05/06 10:13:15;;;;;;;;;6.50;3.00;;;;;-143.57;100.00;65101.44;5099464;27;46042;-41
2023/05/06 10:15:42;;;;;;;;;6.80;5.80;;;;;-143.57;100.00;65101.44;5099603;27;45323;-46
2023/05/06 10:18:08;;;;;;;;;3.80;3.80;;;;;-143.57;100.00;65101.44;5099690;27;45440;-47
2023/05/06 10:20:34;;;;;;;;;4.20;3.00;;;;;-143.57;100.00;65101.44;5099752;27;45276;-45
2023/05/06 10:23:07;;;;;;;;;5.80;2.60;;;;;-143.57;100.00;65101.44;5099361;27;46000;-45
2023/05/06 10:25:44;;;;;;;;;5.00;3.40;;;;;-143.57;100.00;65101.44;5099325;27;45402;-48
2023/05/06 10:28:11;;;;;;;;;6.00;3.20;;;;;-143.57;100.00;65101.44;5099157;27;45442;-45
2023/05/06 10:30:38;;;;;;;;;5.00;5.00;;;;;-143.57;100.00;65101.44;5099622;27;45456;-48
2023/05/06 10:33:06;;;;;;;;;4.40;3.80;;;;;-143.57;100.00;65101.44;5099189;27;46148;-45
2023/05/06 10:35:54;;;;;;;;;3.00;2.00;;;;;-143.57;100.00;65101.44;5099281;27;45315;-45
2023/05/06 10:38:28;;;;;;;;;4.00;3.00;;;;;-143.57;100.00;65101.44;5099079;27;45472;-43
2023/05/06 10:40:54;;;;;;;;;4.00;3.00;;;;;-143.57;100.00;65101.44;5099706;27;45352;-47
2023/05/06 10:43:29;;;;;;;;;4.00;4.00;;;;;-143.57;100.00;65101.44;5098970;27;46354;-42
2023/05/06 10:46:10;;;;;;;;;4.40;4.40;;;;;-143.57;100.00;65101.44;5098721;27;45410;-44
2023/05/06 10:48:37;;;;;;;;;5.20;4.60;;;;;-143.57;100.00;65101.44;5099125;27;45226;-44
2023/05/06 10:51:24;;;;;;;;;4.60;4.00;;;;;-143.57;100.00;65101.44;5099284;27;45402;-43
2023/05/06 10:54:05;;;;;;;;;6.40;4.80;;;;;-143.57;100.00;65101.44;5098859;27;46092;-46
2023/05/06 10:56:34;;;;;;;;;5.40;3.80;;;;;-143.57;100.00;65101.44;5098803;27;45349;-46
2023/05/06 10:59:04;;;;;;;;;5.20;4.00;;;;;-143.57;100.00;65101.44;5097879;27;45308;-54
2023/05/06 11:01:30;;;;;;;;;3.80;3.20;;;;;-143.57;100.00;65101.44;5099141;27;45329;-47
2023/05/06 11:03:55;;;;;;;;;3.75;3.75;;;;;-143.57;100.00;65101.44;5098476;27;47455;-44